Terminal Aerodrome Forecast
Issued by NWS Pendleton, OR

Home | Current Version | Previous Version | Text Only | Print | Product List | Glossary On
Versions: 1 2 3 4 5 6 7 8 9 10 11 12 13 14 15 16
000
FTUS46 KPDT 281500 AAA
TAFPDT
TAF AMD
KPDT 281524Z 2815/2912 24013KT P6SM SKC
     FM281700 25020G29KT P6SM SCT050
     FM282100 25015G24KT P6SM FEW060
     FM290200 20008KT P6SM FEW250
     FM290600 12005KT P6SM BKN250=

USA.gov is the U.S. government's official web portal to all federal, state and local government web resources and services.